DRI Storm Peak Lab. Weather observations

Data are for 5 minute period ending at time listed.
 Day   Time    Ave.   Ave.  Ave.  Vector  Max.   Total    Baro.    Solar      Aerosol      Ave.  Ultrafine   Snow  
  of    of     Air    Rel.  Wind   Wind   Wind  Precip.   Pres.  Radiation   Aerosol      Ozone   Aerosol    Depth 
Year   Day     Temp.  Hum.  Speed  Dir.   Gust                               Ave.   Max.            Ave.           
2014   (MST)    F      %     mph   deg.    mph    in.      mb.     w/m2         #/cm3      ppbv    #/cm3      in.  
-------------------------------------------------------------------------------------------------------------------
 264   21:15   45.6    72    3.4   117     6.8   999.00    698.2      0.0    -1416       0   999.0        0     0.0
 264   21:20   45.4    73    4.9   149     6.5   999.00    698.3      0.0    -1416       0   999.0        0     0.0
 264   21:25   45.3    75    6.0   192     8.3   999.00    698.4      0.0    -1416       0   999.0        0     0.0
 264   21:30   44.1    82    8.6   220    10.6   999.00    698.5      0.0    -1416       0   999.0        0     0.0
 264   21:35   43.0    87    7.3   228     9.8   999.00    698.5      0.0    -1417       0   999.0        0     0.0
 264   21:40   42.0    93    8.4   210    13.2   999.00    698.6      0.0    -1417       0   999.0        0     0.0
 264   21:45   41.5    98   10.7   196    14.4   999.00    698.6      0.0    -1417       0   999.0        0     0.0
 264   21:50   41.7    99   10.4   199    14.3   999.00    698.6      0.0    -1417       0   999.0        0     0.0
 264   21:55   41.8   100    7.4   206    10.0   999.00    698.7      0.0    -1417       0   999.0        0     0.0
 264   22:00   42.1   100    7.5   215    10.7   999.00    698.8      0.0    -1418       0   999.0        0     0.0
 264   22:05   42.1   100    6.3   220    10.2   999.00    698.8      0.0    -1418       0   999.0        0     0.0
 264   22:10   42.3   100    5.8   215     8.3   999.00    698.8      0.0    -1418       0   999.0        0     0.0
 264   22:15   42.3   100    5.5   223     6.6   999.00    698.8      0.0    -1418       0   999.0        0     0.0
 264   22:20   42.3   100    5.9   225     6.8   999.00    698.7      0.0    -1418       0   999.0        0     0.0
 264   22:25   42.3   100    4.6   234     7.0   999.00    698.7      0.0    -1418       0   999.0        0     0.0
 264   22:30   42.3   100    2.0   239     3.5   999.00    698.6      0.0    -1418       0   999.0        0     0.0
 264   22:35   42.4   100    3.2   234     4.6   999.00    698.6      0.0    -1418       0   999.0        0     0.0
 264   22:40   42.5   100    3.0   222     4.6   999.00    698.5      0.0    -1418       0   999.0        0     0.0
 264   22:45   42.5   100    3.2   218     4.8   999.00    698.5      0.0    -1418       0   999.0        0     0.0
 264   22:50   42.5   100    1.8   215     1.8   999.00    698.4      0.0    -1418       0   999.0        0     0.0
 264   22:55   42.5   100    3.0   214     3.8   999.00    698.3      0.0    -1418       0   999.0        0     0.0
 264   23:00   42.5   100    2.0   214     3.1   999.00    698.3      0.0    -1418       0   999.0        0     0.0
 264   23:05   42.1   100    4.6   212     7.0   999.00    698.5      0.0    -1418       0   999.0        0     0.0
 264   23:10   42.2   100    3.6   206     6.8   999.00    698.5      0.0    -1418       0   999.0        0     0.0
 264   23:15   42.3   100    4.7   194     6.1   999.00    698.4      0.0    -1418       0   999.0        0     0.0
 264   23:20   42.4   100    3.0   169     4.8   999.00    698.4      0.0    -1418       0   999.0        0     0.0
 264   23:25   42.4   100    2.0   163     2.5   999.00    698.3      0.0    -1418       0   999.0        0     0.0
 264   23:30   42.1   100    2.6   163     2.9   999.00    698.3      0.0    -1418       0   999.0        0     0.0
 264   23:35   41.9    99    2.7   159     3.1   999.00    698.2      0.0    -1418       0   999.0        0     0.0
 264   23:40   42.0    99    3.0   141     3.3   999.00    698.1      0.0    -1418       0   999.0        0     0.0
 264   23:45   41.9    98    2.2   130     3.7   999.00    697.9      0.0    -1418       0   999.0        0     0.0
 264   23:50   41.9    98    1.8   125     2.5   999.00    697.9      0.0    -1418       0   999.0        0     0.0
 264   23:55   42.0    95    2.0   118     2.7   999.00    697.9      0.0    -1418       0   999.0        0     0.0
 265    0:00   42.2    93    2.0   104     2.7   999.00    697.8      0.0    -1418       0   999.0        0     0.0
 265    0:05   42.4    91    3.8   104     7.2   999.00    697.7      0.0    -1418       0   999.0        0     0.0
 265    0:10   42.4    90    5.6    99     7.6   999.00    697.6      0.0    -1418       0   999.0        0     0.0
 265    0:15   42.9    87    6.8   100    10.7   999.00    697.5      0.0    -1418       0   999.0        0     0.0
 265    0:20   43.4    86    4.5   125    11.5   999.00    697.6      0.0    -1418       0   999.0        0     0.0
 265    0:25   43.1    87    7.9   125    15.6   999.00    697.6      0.0    -1418       0   999.0        0     0.0
 265    0:30   42.4    93    4.2   110     9.8   999.00    697.6      0.0    -1418       0   999.0        0     0.0
 265    0:35   42.0    95    4.9   122     9.4   999.00    697.6      0.0    -1418       0   999.0        0     0.0
 265    0:40   41.8    96    3.1   116     6.3   999.00    697.6      0.0    -1418       0   999.0        0     0.0
 265    0:45   41.9    95    2.9   113     7.0   999.00    697.6      0.0    -1418       0   999.0        0     0.0
 265    0:50   41.9    94    3.6   117     6.6   999.00    697.5      0.0    -1418       0   999.0        0     0.0
 265    0:55   42.0    94    3.3   117     8.1   999.00    697.5      0.0    -1418       0   999.0        0     0.0
 265    1:00   42.0    94    4.4   115    13.0   999.00    697.4      0.0    -1418       0   999.0        0     0.0
 265    1:05   41.8    96    4.0   116     9.6   999.00    697.5      0.0    -1419       0   999.0        0     0.0
 265    1:10   41.5    97    4.0   122    10.0   999.00    697.5      0.0    -1419       0   999.0        0     0.0
 265    1:15   41.5    97    5.5   117    16.5   999.00    697.6      0.0    -1419       0   999.0        0     0.0
 265    1:20   41.4    98    4.9   121    10.7   999.00    697.6      0.0    -1419       0   999.0        0     0.0
 265    1:25   41.2    99    7.4   124    14.6   999.00    697.4      0.0    -1419       0   999.0        0     0.0
 265    1:30   41.2    99    7.4   123    18.9   999.00    697.4      0.0    -1419       0   999.0        0     0.0
 265    1:35   41.1   100    6.5   121    16.5   999.00    697.3      0.0    -1419       0   999.0        0     0.0
 265    1:40   41.1   100    6.2   120    15.0   999.00    697.3      0.0    -1419       0   999.0        0     0.0
 265    1:45   41.0   100    6.1   119    10.9   999.00    697.3      0.0    -1419       0   999.0        0     0.0
 265    1:50   41.1   100    6.8   118    12.8   999.00    697.3      0.0    -1420       0   999.0        0     0.0
 265    1:55   41.1   100    6.2   120    10.4   999.00    697.4      0.0    -1420       0   999.0        0     0.0
 265    2:00   41.2   100    6.2   123    11.7   999.00    697.3      0.0    -1420       0   999.0        0     0.0
 265    2:05   41.3   100    8.5   126    13.9   999.00    697.3      0.0    -1420       0   999.0        0     0.0
 265    2:10   41.4   100    9.4   127    12.2   999.00    697.3      0.0    -1420       0   999.0        0     0.0
 265    2:15   41.4   100    9.6   132    12.6   999.00    697.3      0.0    -1420       0   999.0        0     0.0
 265    2:20   41.4   100    9.2   126    13.0   999.00    697.2      0.0    -1420       0   999.0        0     0.0
 265    2:25   41.5   100    8.5   127    12.6   999.00    697.3      0.0    -1421       0   999.0        0     0.0
 265    2:30   41.6   100    8.7   135    12.6   999.00    697.3      0.0    -1421       0   999.0        0     0.0
 265    2:35   41.9   100    9.7   145    13.0   999.00    697.3      0.0    -1421       0   999.0        0     0.0
 265    2:40   42.1    99    8.4   140    12.0   999.00    697.3      0.0    -1421       0   999.0        0     0.0
 265    2:45   42.1    99    9.9   149    17.6   999.00    697.4      0.0    -1421       0   999.0        0     0.0
 265    2:50   42.2    98   11.3   135    17.2   999.00    697.4      0.0    -1421       0   999.0        0     0.0
 265    2:55   42.0    99    8.3   126    13.7   999.00    697.2      0.0    -1421       0   999.0        0     0.0
 265    3:00   41.8    99    6.8   120    12.0   999.00    697.1      0.0    -1421       0   999.0        0     0.0
 265    3:05   41.7   100    9.4   127    13.3   999.00    697.1      0.0    -1421       0   999.0        0     0.0
 265    3:10   41.7   100    9.8   126    12.4   999.00    697.1      0.0    -1421       0   999.0        0     0.0
 265    3:15   41.7   100    9.8   125    13.5   999.00    696.9      0.0    -1420       0   999.0        0     0.0
 265    3:20   41.7   100   10.8   126    14.6   999.00    697.0      0.0    -1420       0   999.0        0     0.0
 265    3:25   41.7   100   11.6   129    16.1   999.00    697.1      0.0    -1420       0   999.0        0     0.0
 265    3:30   41.7   100   11.9   131    14.4   999.00    697.1      0.0    -1421       0   999.0        0     0.0
 265    3:35   41.7   100   11.7   142    14.8   999.00    697.0      0.0    -1421       0   999.0        0     0.0
 265    3:40   41.8   100   11.2   142    14.1   999.00    697.0      0.0    -1421       0   999.0        0     0.0
 265    3:45   42.0   100   11.3   141    16.7   999.00    697.0      0.0    -1421       0   999.0        0     0.0
 265    3:50   42.0    99   10.7   139    15.9   999.00    697.1      0.0    -1421       0   999.0        0     0.0
 265    3:55   42.0    99   11.7   140    15.8   999.00    697.1      0.0    -1421       0   999.0        0     0.0
 265    4:00   42.0    98   11.5   138    15.2   999.00    697.2      0.0    -1421       0   999.0        0     0.0
 265    4:05   41.9    98   11.6   143    14.3   999.00    697.2      0.0    -1421       0   999.0        0     0.0
 265    4:10   42.1    96   11.7   144    15.6   999.00    697.2      0.0    -1422       0   999.0        0     0.0
 265    4:15   42.2    95   11.4   144    13.0   999.00    697.2      0.0    -1422       0   999.0        0     0.0
 265    4:20   42.2    95   10.2   152    14.1   999.00    697.2      0.0    -1422       0   999.0        0     0.0
 265    4:25   42.2    95    9.9   138    16.5   999.00    697.1      0.0    -1422       0   999.0        0     0.0
 265    4:30   42.0    96   11.4   158    16.5   999.00    697.2      0.0    -1422       0   999.0        0     0.0
 265    4:35   42.1    96   15.4   146    21.0   999.00    697.1      0.0    -1422       0   999.0        0     0.0
 265    4:40   41.9    97   12.9   131    18.0   999.00    697.0      0.0    -1422       0   999.0        0     0.0
 265    4:45   41.6    98   11.2   128    17.4   999.00    697.1      0.0    -1422       0   999.0        0     0.0
 265    4:50   41.4    99   12.8   128    19.7   999.00    696.9      0.0    -1422       0   999.0        0     0.0
 265    4:55   41.3   100   10.1   125    16.3   999.00    697.0      0.0    -1422       0   999.0        0     0.0
 265    5:00   41.1   100    8.1   122    13.9   999.00    696.9      0.0    -1422       0   999.0        0     0.0
 265    5:05   41.1   100    7.1   119    12.4   999.00    696.8      0.0    -1421       0   999.0        0     0.0
 265    5:10   41.0    99    7.0   118    10.0   999.00    696.7      0.0    -1421       0   999.0        0     0.0
 265    5:15   41.0    99    7.4   122    11.7   999.00    696.8      0.0    -1422       0   999.0        0     0.0
 265    5:20   41.0    98    8.2   124    11.8   999.00    696.9      0.0    -1422       0   999.0        0     0.0
 265    5:25   41.1    98    9.6   124    13.2   999.00    697.0      0.0    -1422       0   999.0        0     0.0
 265    5:30   41.0    98   10.3   134    13.2   999.00    697.0      0.0    -1422       0   999.0        0     0.0
 265    5:35   40.9    97   10.6   130    12.8   999.00    697.0      0.0    -1422       0   999.0        0     0.0
 265    5:40   40.8    97    8.6   126    11.7   999.00    697.0      0.0    -1422       0   999.0        0     0.0
 265    5:45   40.7    97    8.3   130    10.4   999.00    697.0      0.0    -1422       0   999.0        0     0.0
 265    5:50   40.6    98    8.1   134    10.2   999.00    697.0      0.0    -1422       0   999.0        0     0.0
 265    5:55   40.6    97    8.6   138    11.7   999.00    697.0      0.0    -1422       0   999.0        0     0.0
 265    6:00   41.0    94    9.2   138    11.5   999.00    697.0      0.0    -1422       0   999.0        0     0.0
 265    6:05   40.8    95    9.2   130    13.0   999.00    696.9      0.0    -1422       0   999.0        0     0.0
 265    6:10   40.7    96    6.7   119    10.6   999.00    696.9      0.0    -1422       0   999.0        0     0.0
 265    6:15   40.7    96    9.5   128    11.3   999.00    696.9      0.0    -1422       0   999.0        0     0.0
 265    6:20   40.8    94   11.2   130    12.6   999.00    696.9      0.0    -1423       0   999.0        0     0.0
 265    6:25   41.1    92   11.0   137    12.4   999.00    696.9      0.0    -1423       0   999.0        0     0.0
 265    6:30   41.4    91   10.1   138    12.2   999.00    696.9      0.0    -1423       0   999.0        0     0.0
 265    6:35   41.0    94    9.2   127    11.1   999.00    696.9      0.0    -1423       0   999.0        0     0.0
 265    6:40   40.8    96    8.7   127    10.9   999.00    696.9      0.0    -1423       0   999.0        0     0.0
 265    6:45   40.8    97    7.5   123     8.9   999.00    697.0      0.0    -1423       0   999.0        0     0.0
 265    6:50   40.9    96    8.0   129     9.2   999.00    697.0      0.0    -1423       0   999.0        0     0.0
 265    6:55   41.0    96    7.5   131     9.1   999.00    696.9      0.0    -1423       0   999.0        0     0.0
 265    7:00   41.1    96    7.1   128     8.9   999.00    696.9      0.0    -1423       0   999.0        0     0.0
 265    7:05   41.0    98    6.6   128     8.3   999.00    696.9      0.0    -1423       0   999.0        0     0.0
 265    7:10   41.0    98    6.6   136     8.5   999.00    696.9      0.0    -1423       0   999.0        0     0.0
 265    7:15   41.1    98    7.3   139    11.7   999.00    696.9      0.0    -1423       0   999.0        0     0.0
 265    7:20   41.5    95    7.3   153    10.0   999.00    696.9      0.0    -1423       0   999.0        0     0.0
 265    7:25   41.5    94    6.3   151     7.8   999.00    696.9      0.0    -1423       0   999.0        0     0.0
 265    7:30   41.4    95    5.6   143     6.6   999.00    696.9      0.0    -1423       0   999.0        0     0.0
 265    7:35   41.3    95    4.8   151     6.6   999.00    696.9      0.0    -1423       0   999.0        0     0.0
 265    7:40   41.4    94    4.3   149     5.0   999.00    696.9      0.0    -1423       0   999.0        0     0.0
 265    7:45   41.5    95    4.8   139     6.3   999.00    696.8      0.0    -1423       0   999.0        0     0.0
 265    7:50   41.4    95    4.0   140     5.5   999.00    696.8      0.0    -1423       0   999.0        0     0.0
 265    7:55   41.5    96    3.6   136     4.6   999.00    696.8      0.0    -1423       0   999.0        0     0.0
 265    8:00   41.7    95    3.4   148     4.0   999.00    696.8      0.0    -1423       0   999.0        0     0.0
 265    8:05   42.4    90    3.5   171     5.3   999.00    696.9      0.0    -1423       0   999.0        0     0.0
 265    8:10   43.0    90    4.1   140     5.7   999.00    696.8      0.0    -1423       0   999.0        0     0.0
 265    8:15   43.1    89    4.8   155     6.5   999.00    696.8      0.0    -1423       0   999.0        0     0.0
 265    8:20   43.3    86    6.5   166    12.0   999.00    697.0      0.0    -1424       0   999.0        0     0.0
 265    8:25   43.7    86    8.2   164    13.0   999.00    697.0      0.0    -1424       0   999.0        0     0.0
 265    8:30   43.5    87    9.1   158    12.8   999.00    697.0      0.0    -1424       0   999.0        0     0.0
 265    8:35   43.4    89   10.1   162    13.0   999.00    697.0      0.0    -1424       0   999.0        0     0.0
 265    8:40   43.2    90   12.1   174    17.1   999.00    697.1      0.0    -1424       0   999.0        0     0.0
 265    8:45   42.8    93   11.3   202    15.9   999.00    697.3      0.0    -1425       0   999.0        0     0.0
 265    8:50   41.7    97   12.8   232    17.4   999.00    697.4      0.0    -1425       0   999.0        0     0.0
 265    8:55   41.0    99   15.4   291    30.6   999.00    697.1      0.0    -1424       0   999.0        0     0.0
 265    9:00   39.4    99   24.8   296    34.0   999.00    697.0      0.0    -1424       0   999.0        0     0.0
 265    9:05   38.3   100   20.8   279    31.6   999.00    697.3      0.0    -1425       0   999.0        0     0.0
 265    9:10   38.2   100   14.0   259    30.6   999.00    697.7      0.0    -1426       0   999.0        0     0.0
 265    9:15   38.1   100   11.6   265    16.7   999.00    697.7      0.0    -1426       0   999.0        0     0.0
 265    9:20   38.1   100    9.8   296    12.4   999.00    697.6      0.0    -1426       0   999.0        0     0.0
 265    9:25   38.5   100    8.6   303    11.1   999.00    697.4      0.0    -1426       0   999.0        0     0.0
 265    9:30   38.6   100    4.1   257     8.1   999.00    697.3      0.0    -1427       0   999.0        0     0.0
 265    9:35   38.7   100    7.2   257    15.8   999.00    697.3      0.0    -1428       0   999.0        0     0.0
 265    9:40   38.9   100   12.0   226    21.1   999.00    697.2      0.0    -1428       0   999.0        0     0.0
 265    9:45   39.0   100   12.0   233    16.3   999.00    697.4      0.0    -1429       0   999.0        0     0.0
 265    9:50   38.9    99   18.1   235    25.2   999.00    697.3      0.0    -1429       0   999.0        0     0.0
 265    9:55   39.2    97   17.5   232    25.1   999.00    697.3      0.0    -1429       0   999.0        0     0.0
 265   10:00   39.0    97   15.1   231    19.1   999.00    697.3      0.0    -1429       0   999.0        0     0.0
 265   10:05   38.7    97   14.5   239    20.2   999.00    697.2      0.0    -1429       0   999.0        0     0.0
 265   10:10   38.8    98   13.3   240    21.7   999.00    697.3      0.0    -1430       0   999.0        0     0.0
 265   10:15   38.8    99   10.4   244    16.3   999.00    697.3      0.0    -1430       0   999.0        0     0.0
 265   10:20   39.1    99   10.6   236    17.1   999.00    697.3      0.0    -1430       0   999.0        0     0.0
 265   10:25   40.0    98   12.3   231    16.3   999.00    697.3      0.0    -1430       0   999.0        0     0.0
 265   10:30   40.5    99    8.7   231    12.8   999.00    697.3      0.0    -1430       0   999.0        0     0.0
 265   10:35   40.6    99    7.2   221    12.8   999.00    697.3      0.0    -1430       0   999.0        0     0.0
 265   10:40   40.7    99    6.1   206    11.5   999.00    697.3      0.0    -1430       0   999.0        0     0.0
 265   10:45   40.7    98    7.0   213    13.2   999.00    697.3      0.0    -1431       0   999.0        0     0.0
 265   10:50   40.7    99    6.7   216    14.3   999.00    697.4      0.0    -1431       0   999.0        0     0.0
 265   10:55   40.5    98   11.5   220    17.6   999.00    697.3      0.0    -1431       0   999.0        0     0.0
 265   11:00   40.7    97   12.1   220    21.1   999.00    697.3      0.0    -1431       0   999.0        0     0.0
 265   11:05   40.9    95   10.7   219    18.9   999.00    697.3      0.0    -1431       0   999.0        0     0.0
 265   11:10   41.1    95   10.9   223    17.4   999.00    697.4      0.0    -1431       0   999.0        0     0.0
 265   11:15   41.4    96    7.2   225    13.7   999.00    697.3      0.0    -1431       0   999.0        0     0.0
 265   11:20   42.3    96    7.4   228    17.8   999.00    697.3      0.0    -1431       0   999.0        0     0.0
 265   11:25   42.1    94   11.2   232    19.5   999.00    697.2      0.0    -1430       0   999.0        0     0.0
 265   11:30   41.6    92   14.3   241    21.5   999.00    697.2      0.0    -1430       0   999.0        0     0.0
 265   11:35   41.2    93   15.1   246    20.8   999.00    697.2      0.0    -1430       0   999.0        0     0.0
 265   11:40   41.1    93   14.0   237    17.8   999.00    697.1      0.0    -1430       0   999.0        0     0.0
 265   11:45   41.5    91   13.5   231    17.8   999.00    697.1      0.0    -1430       0   999.0        0     0.0
 265   11:50   41.8    90   11.7   227    17.1   999.00    697.1      0.0    -1430       0   999.0        0     0.0
 265   11:55   42.4    90   11.1   225    16.7   999.00    697.1      0.0    -1430       0   999.0        0     0.0
 265   12:00   42.3    90    7.9   220    13.2   999.00    697.1      0.0    -1430       0   999.0        0     0.0
 265   12:05   42.3    91    8.3   218    12.0   999.00    697.1      0.0    -1430       0   999.0        0     0.0
 265   12:10   43.1    90    7.8   219    12.8   999.00    697.1      0.0    -1430       0   999.0        0     0.0
 265   12:15   43.6    88    9.4   219    14.3   999.00    696.9      0.0    -1430       0   999.0        0     0.0
 265   12:20   44.1    86    9.2   218    15.0   999.00    696.8      0.0    -1430       0   999.0        0     0.0
 265   12:25   44.1    85   10.2   221    15.9   999.00    696.7      0.0    -1429       0   999.0        0     0.0
 265   12:30   44.7    84    9.5   222    13.9   999.00    696.6      0.0    -1429       0   999.0        0     0.0
 265   12:35   45.4    81   10.6   226    15.4   999.00    696.6      0.0    -1429       0   999.0        0     0.0
 265   12:40   45.3    82   10.0   219    17.4   999.00    696.6      0.0    -1429       0   999.0        0     0.0
 265   12:45   45.2    82   13.0   232    21.3   999.00    696.6      0.0    -1429       0   999.0        0     0.0
 265   12:50   45.5    82    9.1   228    14.1   999.00    696.6      0.0    -1429       0   999.0        0     0.0
 265   12:55   44.9    84   11.7   234    18.7   999.00    696.6      0.0    -1429       0   999.0        0     0.0
 265   13:00   45.2    82   13.5   237    18.4   999.00    696.6      0.0    -1429       0   999.0        0     0.0
 265   13:05   45.1    82   14.0   230    18.7   999.00    696.5      0.0    -1429       0   999.0        0     0.0
 265   13:10   44.5    84   15.4   243    21.3   999.00    696.5      0.0    -1429       0   999.0        0     0.0
 265   13:15   44.8    85   13.1   237    17.2   999.00    696.5      0.0    -1429       0   999.0        0     0.0
 265   13:20   44.5    85   15.2   240    22.5   999.00    696.5      0.0    -1429       0   999.0        0     0.0
 265   13:25   45.2    87    9.5   251    13.5   999.00    696.4      0.0    -1429       0   999.0        0     0.0
 265   13:30   47.0    84    9.8   288    15.8   999.00    696.3      0.0    -1428       0   999.0        0     0.0
 265   13:35   45.8    84    8.4   270    15.0   999.00    696.2      0.0    -1428       0   999.0        0     0.0
 265   13:40   46.2    86   10.2   264    17.1   999.00    696.2      0.0    -1428       0   999.0        0     0.0
 265   13:45   45.6    86   10.9   272    14.8   999.00    696.2      0.0    -1428       0   999.0        0     0.0
 265   13:50   44.6    90    8.6   279    13.2   999.00    696.1      0.0    -1428       0   999.0        0     0.0
 265   13:55   44.6    92    9.6   288    13.2   999.00    696.2      0.0    -1428       0   999.0        0     0.0
 265   14:00   45.2    92    9.1   288    11.8   999.00    696.2      0.0    -1428       0   999.0        0     0.0
 265   14:05   45.1    90    8.7   278    12.2   999.00    696.1      0.0    -1427       0   999.0        0     0.0
 265   14:10   44.5    92    9.1   285    12.2   999.00    696.2      0.0    -1427       0   999.0        0     0.0
 265   14:15   44.9    93    7.3   278    10.4   999.00    696.1      0.0    -1427       0   999.0        0     0.0
 265   14:20   44.8    91    8.3   267    11.8   999.00    696.1      0.0    -1427       0   999.0        0     0.0
 265   14:25   44.4    89   10.3   265    14.3   999.00    696.1      0.0    -1427       0   999.0        0     0.0
 265   14:30   44.4    89    9.2   269    13.2   999.00    696.1      0.0    -1427       0   999.0        0     0.0
 265   14:35   44.7    90    9.3   284    12.2   999.00    696.1      0.0    -1426       0   999.0        0     0.0
 265   14:40   44.6    90    9.8   255    13.0   999.00    696.1      0.0    -1426       0   999.0        0     0.0
 265   14:45   44.5    91   10.2   261    13.0   999.00    696.1      0.0    -1425       0   999.0        0     0.0
 265   14:50   44.9    89   10.0   273    14.4   999.00    696.1      0.0    -1425       0   999.0        0     0.0
 265   14:55   44.7    88   10.5   266    14.3   999.00    696.1      0.0    -1424       0   999.0        0     0.0
 265   15:00   44.2    91    8.8   265    12.8   999.00    696.1      0.0    -1424       0   999.0        0     0.0
 265   15:05   44.2    92    7.6   268    10.4   999.00    696.1      0.0    -1424       0   999.0        0     0.0
 265   15:10   44.1    92   10.3   259    13.9   999.00    696.1      0.0    -1424       0   999.0        0     0.0
 265   15:15   44.3    92    7.6   273    12.2   999.00    696.0      0.0    -1423       0   999.0        0     0.0
 265   15:20   44.1    94    8.6   282    12.0   999.00    696.0      0.0    -1423       0   999.0        0     0.0
 265   15:25   43.8    95    8.9   267    12.6   999.00    696.0      0.0    -1423       0   999.0        0     0.0
 265   15:30   43.7    95   13.0   206    20.4   999.00    696.0      0.0    -1423       0   999.0        0     0.0
 265   15:35   43.0    95   11.4   198    16.9   999.00    696.0      0.0    -1423       0   999.0        0     0.0
 265   15:40   43.2    94    7.6   211    11.7   999.00    696.0      0.0    -1422       0   999.0        0     0.0
 265   15:45   43.7    91    9.1   216    13.9   999.00    695.9      0.0    -1422       0   999.0        0     0.0
 265   15:50   43.6    87    9.7   219    15.2   999.00    696.0      0.0    -1422       0   999.0        0     0.0
 265   15:55   43.7    87    9.0   199    12.2   999.00    695.9      0.0    -1422       0   999.0        0     0.0
 265   16:00   43.4    87   10.2   210    14.4   999.00    695.9      0.0    -1422       0   999.0        0     0.0
 265   16:05   43.2    86   11.4   222    16.1   999.00    696.0      0.0    -1422       0   999.0        0     0.0
 265   16:10   43.3    85   14.3   228    17.2   999.00    695.9      0.0    -1422       0   999.0        0     0.0
 265   16:15   43.7    84   13.0   243    18.5   999.00    695.9      0.0    -1422       0   999.0        0     0.0
 265   16:20   43.4    85   16.4   244    21.9   999.00    695.8      0.0    -1422       0   999.0        0     0.0
 265   16:25   43.5    85   18.4   241    22.3   999.00    695.7      0.0    -1421       0   999.0        0     0.0
 265   16:30   43.7    84   17.6   239    20.2   999.00    695.7      0.0    -1422       0   999.0        0     0.0
 265   16:35   43.6    84   16.5   240    21.1   999.00    695.8      0.0    -1422       0   999.0        0     0.0
 265   16:40   43.4    86   12.9   263    16.1   999.00    695.7      0.0    -1422       0   999.0        0     0.0
 265   16:45   43.2    87   13.5   268    17.6   999.00    695.8      0.0    -1422       0   999.0        0     0.0
 265   16:50   43.3    87   12.4   259    16.3   999.00    695.8      0.0    -1422       0   999.0        0     0.0
 265   16:55   43.4    87   15.0   241    20.6   999.00    695.9      0.0    -1423       0   999.0        0     0.0
 265   17:00   43.1    89   13.1   225    17.6   999.00    696.0      0.0    -1423       0   999.0        0     0.0
 265   17:05   43.1    87   14.1   238    17.2   999.00    695.9      0.0    -1423       0   999.0        0     0.0
 265   17:10   43.5    86   14.1   253    17.4   999.00    695.9      0.0    -1423       0   999.0        0     0.0
 265   17:15   43.7    86   12.8   243    15.4   999.00    695.9      0.0    -1423       0   999.0        0     0.0
 265   17:20   43.4    86   11.6   243    14.1   999.00    695.8      0.0    -1423       0   999.0        0     0.0
 265   17:25   43.4    87   12.5   228    15.0   999.00    695.8      0.0    -1423       0   999.0        0     0.0
 265   17:30   43.2    88   12.3   222    15.9   999.00    695.8      0.0    -1423       0   999.0        0     0.0
 265   17:35   43.3    88   12.6   220    17.2   999.00    695.7      0.0    -1423       0   999.0        0     0.0
 265   17:40   43.5    88   14.3   241    19.3   999.00    695.9      0.0    -1423       0   999.0        0     0.0
 265   17:45   41.8    89   11.0   303    16.1   999.00    696.0      0.0    -1424       0   999.0        0     0.0
 265   17:50   40.7    94    5.1   268     8.5   999.00    696.1      0.0    -1424       0   999.0        0     0.0
 265   17:55   41.8    94   14.0   230    19.3   999.00    696.0      0.0    -1424       0   999.0        0     0.0
 265   18:00   43.0    89   14.9   223    20.0   999.00    696.0      0.0    -1424       0   999.0        0     0.0
 265   18:05   43.2    87   16.3   229    22.1   999.00    695.9      0.0    -1424       0   999.0        0     0.0
 265   18:10   43.1    88   16.6   228    20.2   999.00    695.8      0.0    -1425       0   999.0        0     0.0
 265   18:15   43.0    88   15.2   224    20.4   999.00    695.9      0.0    -1425       0   999.0        0     0.0
 265   18:20   43.0    87   15.1   224    20.6   999.00    695.9      0.0    -1426       0   999.0        0     0.0
 265   18:25   43.0    86   15.9   222    19.9   999.00    695.9      0.0    -1425       0   999.0        0     0.0
 265   18:30   43.0    86   17.2   220    22.5   999.00    695.9      0.0    -1425       0   999.0        0     0.0
 265   18:35   42.8    86   17.9   222    26.0   999.00    695.9      0.0    -1426       0   999.0        0     0.0
 265   18:40   42.7    86   17.2   225    23.2   999.00    696.0      0.0    -1426       0   999.0        0     0.0
 265   18:45   42.7    86   16.1   223    21.1   999.00    696.0      0.0    -1426       0   999.0        0     0.0
 265   18:50   42.9    85   18.2   223    23.6   999.00    696.0      0.0    -1427       0   999.0        0     0.0
 265   18:55   43.0    83   21.0   229    26.0   999.00    696.1      0.0    -1427       0   999.0        0     0.0
 265   19:00   43.0    83   19.0   238    25.1   999.00    696.1      0.0    -1427       0   999.0        0     0.0
 265   19:05   43.0    83   17.9   238    21.1   999.00    696.1      0.0    -1428       0   999.0        0     0.0
 265   19:10   42.9    84   18.2   232    23.0   999.00    696.1      0.0    -1428       0   999.0        0     0.0
 265   19:15   43.1    84   19.1   232    23.2   999.00    696.2      0.0    -1428       0   999.0        0     0.0
 265   19:20   43.1    85   18.2   233    22.1   999.00    696.3      0.0    -1428       0   999.0        0     0.0
 265   19:25   43.1    86   17.5   232    21.1   999.00    696.2      0.0    -1429       0   999.0        0     0.0
 265   19:30   42.9    87   17.2   232    21.5   999.00    696.2      0.0    -1429       0   999.0        0     0.0
 265   19:35   42.9    87   17.8   235    21.0   999.00    696.3      0.0    -1429       0   999.0        0     0.0
 265   19:40   42.9    88   17.2   232    21.3   999.00    696.3      0.0    -1429       0   999.0        0     0.0
 265   19:45   42.8    88   16.2   237    19.5   999.00    696.4      0.0    -1429       0   999.0        0     0.0
 265   19:50   42.7    89   17.5   232    21.0   999.00    696.4      0.0    -1429       0   999.0        0     0.0
 265   19:55   42.5    89   18.2   234    21.9   999.00    696.3      0.0    -1429       0   999.0        0     0.0
 265   20:00   42.4    89   18.2   234    21.7   999.00    696.3      0.0    -1430       0   999.0        0     0.0
 265   20:05   42.4    89   19.1   235    22.5   999.00    696.3      0.0    -1430       0   999.0        0     0.0
 265   20:10   42.3    90   19.5   234    23.6   999.00    696.3      0.0    -1430       0   999.0        0     0.0
 265   20:15   42.2    90   19.0   236    22.6   999.00    696.2      0.0    -1430       0   999.0        0     0.0
 265   20:20   42.2    90   19.2   239    24.5   999.00    696.2      0.0    -1430       0   999.0        0     0.0
 265   20:25   42.1    90   18.1   235    22.3   999.00    696.2      0.0    -1430       0   999.0        0     0.0
 265   20:30   41.9    90   19.4   234    22.1   999.00    696.2      0.0    -1430       0   999.0        0     0.0
 265   20:35   41.8    90   19.6   235    23.2   999.00    696.2      0.0    -1430       0   999.0        0     0.0
 265   20:40   42.0    89   19.5   233    24.7   999.00    696.2      0.0    -1430       0   999.0        0     0.0
 265   20:45   41.9    89   17.0   233    20.2   999.00    696.3      0.0    -1431       0   999.0        0     0.0
 265   20:50   41.8    89   17.8   234    20.8   999.00    696.3      0.0    -1431       0   999.0        0     0.0
 265   20:55   41.8    88   19.1   236    21.9   999.00    696.2      0.0    -1431       0   999.0        0     0.0
 265   21:00   42.0    87   19.1   240    23.2   999.00    696.2      0.0    -1431       0   999.0        0     0.0
 265   21:05   42.0    87   17.1   238    21.9   999.00    696.2      0.0    -1431       0   999.0        0     0.0
 265   21:10   42.0    87   14.5   227    18.7   999.00    696.2      0.0    -1431       0   999.0        0     0.0

Return to DRI Storm Peak Lab. graphs page.


Western Regional Climate Center,wrcc@dri.edu